sensor_id;sensor_type;location;lat;lon;timestamp;temperature;humidity
15178;DHT22;7689;53.612;-2.416;2022-11-23T00:01:51;6.20;99.90
15178;DHT22;7689;53.612;-2.416;2022-11-23T00:04:17;6.20;99.90
15178;DHT22;7689;53.612;-2.416;2022-11-23T00:06:43;6.20;99.90
15178;DHT22;7689;53.612;-2.416;2022-11-23T00:09:09;6.10;99.90
15178;DHT22;7689;53.612;-2.416;2022-11-23T00:11:35;6.10;99.90
15178;DHT22;7689;53.612;-2.416;2022-11-23T00:14:01;6.10;99.90
15178;DHT22;7689;53.612;-2.416;2022-11-23T00:16:28;6.10;99.90
15178;DHT22;7689;53.612;-2.416;2022-11-23T00:18:56;6.20;99.90
15178;DHT22;7689;53.612;-2.416;2022-11-23T00:21:24;6.30;99.90
15178;DHT22;7689;53.612;-2.416;2022-11-23T00:23:50;6.30;99.90
15178;DHT22;7689;53.612;-2.416;2022-11-23T00:26:17;6.30;99.90
15178;DHT22;7689;53.612;-2.416;2022-11-23T00:28:43;6.40;99.90
15178;DHT22;7689;53.612;-2.416;2022-11-23T00:31:11;6.40;99.90
15178;DHT22;7689;53.612;-2.416;2022-11-23T00:33:38;6.30;99.90
15178;DHT22;7689;53.612;-2.416;2022-11-23T00:36:10;6.30;99.90
15178;DHT22;7689;53.612;-2.416;2022-11-23T00:38:36;6.20;99.90
15178;DHT22;7689;53.612;-2.416;2022-11-23T00:41:05;6.10;99.90
15178;DHT22;7689;53.612;-2.416;2022-11-23T00:43:31;6.00;99.90
15178;DHT22;7689;53.612;-2.416;2022-11-23T00:48:43;6.00;99.90
15178;DHT22;7689;53.612;-2.416;2022-11-23T00:51:12;6.00;99.90
15178;DHT22;7689;53.612;-2.416;2022-11-23T00:53:38;6.00;99.90
15178;DHT22;7689;53.612;-2.416;2022-11-23T00:56:04;5.90;99.90
15178;DHT22;7689;53.612;-2.416;2022-11-23T00:58:30;5.90;99.90
15178;DHT22;7689;53.612;-2.416;2022-11-23T01:01:01;5.90;99.90
15178;DHT22;7689;53.612;-2.416;2022-11-23T01:03:28;6.00;99.90
15178;DHT22;7689;53.612;-2.416;2022-11-23T01:05:55;6.00;99.90
15178;DHT22;7689;53.612;-2.416;2022-11-23T01:08:20;5.90;99.90
15178;DHT22;7689;53.612;-2.416;2022-11-23T01:10:46;5.90;99.90
15178;DHT22;7689;53.612;-2.416;2022-11-23T01:13:12;6.00;99.90
15178;DHT22;7689;53.612;-2.416;2022-11-23T01:15:37;6.00;99.90
15178;DHT22;7689;53.612;-2.416;2022-11-23T01:18:03;6.10;99.90
15178;DHT22;7689;53.612;-2.416;2022-11-23T01:20:29;6.10;99.90
15178;DHT22;7689;53.612;-2.416;2022-11-23T01:22:54;6.20;99.90
15178;DHT22;7689;53.612;-2.416;2022-11-23T01:25:20;6.10;99.90
15178;DHT22;7689;53.612;-2.416;2022-11-23T01:27:46;6.00;99.90
15178;DHT22;7689;53.612;-2.416;2022-11-23T01:30:12;6.10;99.90
15178;DHT22;7689;53.612;-2.416;2022-11-23T01:32:38;6.70;99.90
15178;DHT22;7689;53.612;-2.416;2022-11-23T01:35:04;6.10;99.90
15178;DHT22;7689;53.612;-2.416;2022-11-23T01:37:30;6.20;99.90
15178;DHT22;7689;53.612;-2.416;2022-11-23T01:39:55;6.20;99.90
15178;DHT22;7689;53.612;-2.416;2022-11-23T01:42:21;6.30;99.90
15178;DHT22;7689;53.612;-2.416;2022-11-23T01:44:47;6.40;99.90
15178;DHT22;7689;53.612;-2.416;2022-11-23T01:47:13;6.50;99.90
15178;DHT22;7689;53.612;-2.416;2022-11-23T01:49:42;6.50;99.90
15178;DHT22;7689;53.612;-2.416;2022-11-23T01:52:13;6.60;99.90
15178;DHT22;7689;53.612;-2.416;2022-11-23T01:54:48;6.60;99.90
15178;DHT22;7689;53.612;-2.416;2022-11-23T01:57:24;6.50;99.90
15178;DHT22;7689;53.612;-2.416;2022-11-23T01:59:52;6.50;99.90
15178;DHT22;7689;53.612;-2.416;2022-11-23T02:02:18;6.50;99.90
15178;DHT22;7689;53.612;-2.416;2022-11-23T02:04:46;6.50;99.90
15178;DHT22;7689;53.612;-2.416;2022-11-23T02:07:13;6.50;99.90
15178;DHT22;7689;53.612;-2.416;2022-11-23T02:09:41;6.40;99.90
15178;DHT22;7689;53.612;-2.416;2022-11-23T02:12:13;6.30;99.90
15178;DHT22;7689;53.612;-2.416;2022-11-23T02:14:40;6.20;99.90
15178;DHT22;7689;53.612;-2.416;2022-11-23T02:17:06;6.20;99.90
15178;DHT22;7689;53.612;-2.416;2022-11-23T02:22:21;6.20;99.90
15178;DHT22;7689;53.612;-2.416;2022-11-23T02:24:50;6.20;99.90
15178;DHT22;7689;53.612;-2.416;2022-11-23T02:27:18;6.30;99.90
15178;DHT22;7689;53.612;-2.416;2022-11-23T02:29:45;6.30;99.90
15178;DHT22;7689;53.612;-2.416;2022-11-23T02:32:16;6.20;99.90
15178;DHT22;7689;53.612;-2.416;2022-11-23T02:34:43;6.20;99.90
15178;DHT22;7689;53.612;-2.416;2022-11-23T02:37:09;6.20;99.90
15178;DHT22;7689;53.612;-2.416;2022-11-23T02:42:00;6.20;99.90
15178;DHT22;7689;53.612;-2.416;2022-11-23T02:44:50;6.10;99.90
15178;DHT22;7689;53.612;-2.416;2022-11-23T02:47:18;6.10;99.90
15178;DHT22;7689;53.612;-2.416;2022-11-23T02:49:48;6.10;99.90
15178;DHT22;7689;53.612;-2.416;2022-11-23T02:52:15;6.10;99.90
15178;DHT22;7689;53.612;-2.416;2022-11-23T02:54:41;6.00;99.90
15178;DHT22;7689;53.612;-2.416;2022-11-23T02:57:07;6.00;99.90
15178;DHT22;7689;53.612;-2.416;2022-11-23T02:59:34;6.00;99.90
15178;DHT22;7689;53.612;-2.416;2022-11-23T03:02:01;6.00;99.90
15178;DHT22;7689;53.612;-2.416;2022-11-23T03:04:27;6.00;99.90
15178;DHT22;7689;53.612;-2.416;2022-11-23T03:06:53;6.20;99.90
15178;DHT22;7689;53.612;-2.416;2022-11-23T03:09:19;6.30;99.90
15178;DHT22;7689;53.612;-2.416;2022-11-23T03:11:44;6.30;99.90
15178;DHT22;7689;53.612;-2.416;2022-11-23T03:14:10;6.40;99.90
15178;DHT22;7689;53.612;-2.416;2022-11-23T03:16:36;6.50;99.90
15178;DHT22;7689;53.612;-2.416;2022-11-23T03:19:02;6.60;99.90
15178;DHT22;7689;53.612;-2.416;2022-11-23T03:21:28;6.60;99.90
15178;DHT22;7689;53.612;-2.416;2022-11-23T03:23:54;7.40;99.90
15178;DHT22;7689;53.612;-2.416;2022-11-23T03:26:20;6.60;99.90
15178;DHT22;7689;53.612;-2.416;2022-11-23T03:28:46;6.60;99.90
15178;DHT22;7689;53.612;-2.416;2022-11-23T03:31:12;6.70;99.90
15178;DHT22;7689;53.612;-2.416;2022-11-23T03:33:37;6.60;99.90
15178;DHT22;7689;53.612;-2.416;2022-11-23T03:36:03;6.60;99.90
15178;DHT22;7689;53.612;-2.416;2022-11-23T03:38:29;6.70;99.90
15178;DHT22;7689;53.612;-2.416;2022-11-23T03:40:55;6.60;99.90
15178;DHT22;7689;53.612;-2.416;2022-11-23T03:43:21;6.50;99.90
15178;DHT22;7689;53.612;-2.416;2022-11-23T03:45:47;6.50;99.90
15178;DHT22;7689;53.612;-2.416;2022-11-23T03:48:13;6.50;99.90
15178;DHT22;7689;53.612;-2.416;2022-11-23T03:50:39;6.50;99.90
15178;DHT22;7689;53.612;-2.416;2022-11-23T03:53:05;6.40;99.90
15178;DHT22;7689;53.612;-2.416;2022-11-23T03:55:31;6.30;99.90
15178;DHT22;7689;53.612;-2.416;2022-11-23T03:57:57;6.30;99.90
15178;DHT22;7689;53.612;-2.416;2022-11-23T04:00:25;6.40;99.90
15178;DHT22;7689;53.612;-2.416;2022-11-23T04:02:51;6.30;99.90
15178;DHT22;7689;53.612;-2.416;2022-11-23T04:05:17;6.30;99.90
15178;DHT22;7689;53.612;-2.416;2022-11-23T04:07:42;6.30;99.90
15178;DHT22;7689;53.612;-2.416;2022-11-23T04:10:10;6.40;99.90
15178;DHT22;7689;53.612;-2.416;2022-11-23T04:12:36;6.40;99.90
15178;DHT22;7689;53.612;-2.416;2022-11-23T04:15:02;6.40;99.90
15178;DHT22;7689;53.612;-2.416;2022-11-23T04:17:27;6.30;99.90
15178;DHT22;7689;53.612;-2.416;2022-11-23T04:19:53;6.20;99.90
15178;DHT22;7689;53.612;-2.416;2022-11-23T04:22:19;6.20;99.90
15178;DHT22;7689;53.612;-2.416;2022-11-23T04:24:45;6.20;99.90
15178;DHT22;7689;53.612;-2.416;2022-11-23T04:27:10;6.20;99.90
15178;DHT22;7689;53.612;-2.416;2022-11-23T04:29:36;6.20;99.90
15178;DHT22;7689;53.612;-2.416;2022-11-23T04:32:02;6.10;99.90
15178;DHT22;7689;53.612;-2.416;2022-11-23T04:34:28;6.10;99.90
15178;DHT22;7689;53.612;-2.416;2022-11-23T04:36:53;6.10;99.90
15178;DHT22;7689;53.612;-2.416;2022-11-23T04:39:19;6.10;99.90
15178;DHT22;7689;53.612;-2.416;2022-11-23T04:41:45;6.10;99.90
15178;DHT22;7689;53.612;-2.416;2022-11-23T04:44:10;6.10;99.90
15178;DHT22;7689;53.612;-2.416;2022-11-23T04:46:36;6.10;99.90
15178;DHT22;7689;53.612;-2.416;2022-11-23T04:49:02;6.10;99.90
15178;DHT22;7689;53.612;-2.416;2022-11-23T04:51:28;6.10;99.90
15178;DHT22;7689;53.612;-2.416;2022-11-23T04:53:54;6.10;99.90
15178;DHT22;7689;53.612;-2.416;2022-11-23T04:56:19;6.10;99.90
15178;DHT22;7689;53.612;-2.416;2022-11-23T04:58:45;6.10;99.90
15178;DHT22;7689;53.612;-2.416;2022-11-23T05:01:11;6.20;99.90
15178;DHT22;7689;53.612;-2.416;2022-11-23T05:03:36;6.10;99.90
15178;DHT22;7689;53.612;-2.416;2022-11-23T05:06:03;6.10;99.90
15178;DHT22;7689;53.612;-2.416;2022-11-23T05:08:30;6.10;99.90
15178;DHT22;7689;53.612;-2.416;2022-11-23T05:10:56;6.10;99.90
15178;DHT22;7689;53.612;-2.416;2022-11-23T05:13:22;6.20;99.90
15178;DHT22;7689;53.612;-2.416;2022-11-23T05:15:48;6.20;99.90
15178;DHT22;7689;53.612;-2.416;2022-11-23T05:18:14;6.20;99.90
15178;DHT22;7689;53.612;-2.416;2022-11-23T05:20:40;7.00;99.90
15178;DHT22;7689;53.612;-2.416;2022-11-23T05:23:06;6.30;99.90
15178;DHT22;7689;53.612;-2.416;2022-11-23T05:25:32;6.30;99.90
15178;DHT22;7689;53.612;-2.416;2022-11-23T05:27:58;6.30;99.90
15178;DHT22;7689;53.612;-2.416;2022-11-23T05:30:24;6.30;99.90
15178;DHT22;7689;53.612;-2.416;2022-11-23T05:32:50;6.30;99.90
15178;DHT22;7689;53.612;-2.416;2022-11-23T05:35:16;6.30;99.90
15178;DHT22;7689;53.612;-2.416;2022-11-23T05:37:42;6.30;99.90
15178;DHT22;7689;53.612;-2.416;2022-11-23T05:40:08;6.30;99.90
15178;DHT22;7689;53.612;-2.416;2022-11-23T05:42:34;6.30;99.90
15178;DHT22;7689;53.612;-2.416;2022-11-23T05:45:00;6.40;99.90
15178;DHT22;7689;53.612;-2.416;2022-11-23T05:47:26;6.40;99.90
15178;DHT22;7689;53.612;-2.416;2022-11-23T05:49:52;6.40;99.90
15178;DHT22;7689;53.612;-2.416;2022-11-23T05:52:18;6.40;99.90
15178;DHT22;7689;53.612;-2.416;2022-11-23T05:54:43;6.50;99.90
15178;DHT22;7689;53.612;-2.416;2022-11-23T05:57:09;6.40;99.90
15178;DHT22;7689;53.612;-2.416;2022-11-23T05:59:35;6.50;99.90
15178;DHT22;7689;53.612;-2.416;2022-11-23T06:02:01;6.50;99.90
15178;DHT22;7689;53.612;-2.416;2022-11-23T06:04:27;6.50;99.90
15178;DHT22;7689;53.612;-2.416;2022-11-23T06:06:52;6.60;99.90
15178;DHT22;7689;53.612;-2.416;2022-11-23T06:09:28;6.50;99.90
15178;DHT22;7689;53.612;-2.416;2022-11-23T06:11:54;6.50;99.90
15178;DHT22;7689;53.612;-2.416;2022-11-23T06:14:20;6.60;99.90
15178;DHT22;7689;53.612;-2.416;2022-11-23T06:16:46;6.60;99.90
15178;DHT22;7689;53.612;-2.416;2022-11-23T06:19:11;6.50;99.90
15178;DHT22;7689;53.612;-2.416;2022-11-23T06:21:37;6.50;99.90
15178;DHT22;7689;53.612;-2.416;2022-11-23T06:24:03;6.50;99.90
15178;DHT22;7689;53.612;-2.416;2022-11-23T06:26:29;6.50;99.90
15178;DHT22;7689;53.612;-2.416;2022-11-23T06:28:56;6.50;99.90
15178;DHT22;7689;53.612;-2.416;2022-11-23T06:31:21;6.50;99.90
15178;DHT22;7689;53.612;-2.416;2022-11-23T06:33:47;6.50;99.90
15178;DHT22;7689;53.612;-2.416;2022-11-23T06:36:13;6.40;99.90
15178;DHT22;7689;53.612;-2.416;2022-11-23T06:38:40;6.40;99.90
15178;DHT22;7689;53.612;-2.416;2022-11-23T06:41:06;6.50;99.90
15178;DHT22;7689;53.612;-2.416;2022-11-23T06:43:31;6.40;99.90
15178;DHT22;7689;53.612;-2.416;2022-11-23T06:45:57;6.40;99.90
15178;DHT22;7689;53.612;-2.416;2022-11-23T06:48:23;6.50;99.90
15178;DHT22;7689;53.612;-2.416;2022-11-23T06:50:49;6.50;99.90
15178;DHT22;7689;53.612;-2.416;2022-11-23T06:53:15;6.50;99.90
15178;DHT22;7689;53.612;-2.416;2022-11-23T06:55:41;6.60;99.90
15178;DHT22;7689;53.612;-2.416;2022-11-23T06:58:07;6.60;99.90
15178;DHT22;7689;53.612;-2.416;2022-11-23T07:00:33;6.60;99.90
15178;DHT22;7689;53.612;-2.416;2022-11-23T07:02:59;6.60;99.90
15178;DHT22;7689;53.612;-2.416;2022-11-23T07:05:26;6.70;99.90
15178;DHT22;7689;53.612;-2.416;2022-11-23T07:07:52;6.70;99.90
15178;DHT22;7689;53.612;-2.416;2022-11-23T07:10:18;6.70;99.90
15178;DHT22;7689;53.612;-2.416;2022-11-23T07:12:45;6.80;99.90
15178;DHT22;7689;53.612;-2.416;2022-11-23T07:15:11;6.80;99.90
15178;DHT22;7689;53.612;-2.416;2022-11-23T07:17:41;6.90;99.90
15178;DHT22;7689;53.612;-2.416;2022-11-23T07:20:09;6.90;99.90
15178;DHT22;7689;53.612;-2.416;2022-11-23T07:22:36;7.00;99.90
15178;DHT22;7689;53.612;-2.416;2022-11-23T07:25:02;7.00;99.90
15178;DHT22;7689;53.612;-2.416;2022-11-23T07:27:28;7.00;99.90
15178;DHT22;7689;53.612;-2.416;2022-11-23T07:29:54;7.00;99.90
15178;DHT22;7689;53.612;-2.416;2022-11-23T07:32:19;7.10;99.90
15178;DHT22;7689;53.612;-2.416;2022-11-23T07:34:45;7.10;99.90
15178;DHT22;7689;53.612;-2.416;2022-11-23T07:37:11;7.10;99.90
15178;DHT22;7689;53.612;-2.416;2022-11-23T07:39:36;7.20;99.90
15178;DHT22;7689;53.612;-2.416;2022-11-23T07:42:02;7.20;99.90
15178;DHT22;7689;53.612;-2.416;2022-11-23T07:44:28;7.20;99.90
15178;DHT22;7689;53.612;-2.416;2022-11-23T07:46:53;7.20;99.90
15178;DHT22;7689;53.612;-2.416;2022-11-23T07:49:19;7.20;99.90
15178;DHT22;7689;53.612;-2.416;2022-11-23T07:51:45;7.20;99.90
15178;DHT22;7689;53.612;-2.416;2022-11-23T07:54:11;7.30;99.90
15178;DHT22;7689;53.612;-2.416;2022-11-23T07:56:36;7.30;99.90
15178;DHT22;7689;53.612;-2.416;2022-11-23T07:59:02;7.30;99.90
15178;DHT22;7689;53.612;-2.416;2022-11-23T08:01:29;7.40;99.90
15178;DHT22;7689;53.612;-2.416;2022-11-23T08:03:56;7.40;99.90
15178;DHT22;7689;53.612;-2.416;2022-11-23T08:06:22;7.50;99.90
15178;DHT22;7689;53.612;-2.416;2022-11-23T08:08:48;7.40;99.90
15178;DHT22;7689;53.612;-2.416;2022-11-23T08:11:14;7.50;99.90
15178;DHT22;7689;53.612;-2.416;2022-11-23T08:13:41;7.50;99.90
15178;DHT22;7689;53.612;-2.416;2022-11-23T08:16:07;7.40;99.90
15178;DHT22;7689;53.612;-2.416;2022-11-23T08:18:33;7.40;99.90
15178;DHT22;7689;53.612;-2.416;2022-11-23T08:20:59;7.40;99.90
15178;DHT22;7689;53.612;-2.416;2022-11-23T08:23:25;7.40;99.90
15178;DHT22;7689;53.612;-2.416;2022-11-23T08:25:51;7.40;99.90
15178;DHT22;7689;53.612;-2.416;2022-11-23T08:28:17;7.50;99.90
15178;DHT22;7689;53.612;-2.416;2022-11-23T08:30:43;7.50;99.90
15178;DHT22;7689;53.612;-2.416;2022-11-23T08:33:09;7.50;99.90
15178;DHT22;7689;53.612;-2.416;2022-11-23T08:35:38;7.60;99.90
15178;DHT22;7689;53.612;-2.416;2022-11-23T08:38:05;7.60;99.90
15178;DHT22;7689;53.612;-2.416;2022-11-23T08:40:32;7.60;99.90
15178;DHT22;7689;53.612;-2.416;2022-11-23T08:42:57;7.50;99.90
15178;DHT22;7689;53.612;-2.416;2022-11-23T08:45:24;7.60;99.90
15178;DHT22;7689;53.612;-2.416;2022-11-23T08:47:50;7.60;99.90
15178;DHT22;7689;53.612;-2.416;2022-11-23T08:50:18;7.60;99.90
15178;DHT22;7689;53.612;-2.416;2022-11-23T08:52:44;7.70;99.90
15178;DHT22;7689;53.612;-2.416;2022-11-23T08:55:10;7.60;99.90
15178;DHT22;7689;53.612;-2.416;2022-11-23T08:57:35;7.60;99.90
15178;DHT22;7689;53.612;-2.416;2022-11-23T09:00:02;7.70;99.90
15178;DHT22;7689;53.612;-2.416;2022-11-23T09:02:28;7.70;99.90
15178;DHT22;7689;53.612;-2.416;2022-11-23T09:04:54;7.60;99.90
15178;DHT22;7689;53.612;-2.416;2022-11-23T09:07:20;8.80;99.90
15178;DHT22;7689;53.612;-2.416;2022-11-23T09:09:45;7.70;99.90
15178;DHT22;7689;53.612;-2.416;2022-11-23T09:12:11;7.60;99.90
15178;DHT22;7689;53.612;-2.416;2022-11-23T09:14:37;7.70;99.90
15178;DHT22;7689;53.612;-2.416;2022-11-23T09:17:03;7.70;99.90
15178;DHT22;7689;53.612;-2.416;2022-11-23T09:19:29;7.70;99.90
15178;DHT22;7689;53.612;-2.416;2022-11-23T09:21:55;7.70;99.90
15178;DHT22;7689;53.612;-2.416;2022-11-23T09:24:20;7.70;99.90
15178;DHT22;7689;53.612;-2.416;2022-11-23T09:26:47;7.80;99.90
15178;DHT22;7689;53.612;-2.416;2022-11-23T09:29:12;7.80;99.90
15178;DHT22;7689;53.612;-2.416;2022-11-23T09:31:38;7.80;99.90
15178;DHT22;7689;53.612;-2.416;2022-11-23T09:34:04;7.80;99.90
15178;DHT22;7689;53.612;-2.416;2022-11-23T09:36:30;7.80;99.90
15178;DHT22;7689;53.612;-2.416;2022-11-23T09:38:56;7.80;99.90
15178;DHT22;7689;53.612;-2.416;2022-11-23T09:41:26;7.90;99.90
15178;DHT22;7689;53.612;-2.416;2022-11-23T09:49:21;7.90;99.90
15178;DHT22;7689;53.612;-2.416;2022-11-23T09:51:47;7.90;99.90
15178;DHT22;7689;53.612;-2.416;2022-11-23T09:54:42;7.90;99.90
15178;DHT22;7689;53.612;-2.416;2022-11-23T09:57:11;7.90;99.90
15178;DHT22;7689;53.612;-2.416;2022-11-23T09:59:41;7.90;99.90
15178;DHT22;7689;53.612;-2.416;2022-11-23T10:02:19;7.90;99.90
15178;DHT22;7689;53.612;-2.416;2022-11-23T10:04:46;8.10;99.90
15178;DHT22;7689;53.612;-2.416;2022-11-23T10:15:39;8.00;99.90
15178;DHT22;7689;53.612;-2.416;2022-11-23T10:18:16;7.90;99.90
15178;DHT22;7689;53.612;-2.416;2022-11-23T10:23:59;8.00;99.90
15178;DHT22;7689;53.612;-2.416;2022-11-23T10:26:39;8.10;99.90
15178;DHT22;7689;53.612;-2.416;2022-11-23T10:29:29;8.10;99.90
15178;DHT22;7689;53.612;-2.416;2022-11-23T10:31:57;8.10;99.90
15178;DHT22;7689;53.612;-2.416;2022-11-23T10:36:59;8.20;99.90
15178;DHT22;7689;53.612;-2.416;2022-11-23T10:39:26;8.10;99.90
15178;DHT22;7689;53.612;-2.416;2022-11-23T10:42:00;8.10;99.90
15178;DHT22;7689;53.612;-2.416;2022-11-23T10:44:34;8.20;99.90
15178;DHT22;7689;53.612;-2.416;2022-11-23T10:47:03;8.30;99.90
15178;DHT22;7689;53.612;-2.416;2022-11-23T10:49:33;8.30;99.90
15178;DHT22;7689;53.612;-2.416;2022-11-23T10:54:59;8.50;99.90
15178;DHT22;7689;53.612;-2.416;2022-11-23T10:57:33;8.60;99.90
15178;DHT22;7689;53.612;-2.416;2022-11-23T11:02:40;8.90;99.90
15178;DHT22;7689;53.612;-2.416;2022-11-23T11:05:25;8.90;99.90
15178;DHT22;7689;53.612;-2.416;2022-11-23T11:07:52;9.00;99.90
15178;DHT22;7689;53.612;-2.416;2022-11-23T11:10:34;9.10;99.90
15178;DHT22;7689;53.612;-2.416;2022-11-23T11:13:01;9.20;99.90
15178;DHT22;7689;53.612;-2.416;2022-11-23T11:15:26;9.20;99.90
15178;DHT22;7689;53.612;-2.416;2022-11-23T11:17:59;9.20;99.90
15178;DHT22;7689;53.612;-2.416;2022-11-23T11:20:31;9.20;99.90
15178;DHT22;7689;53.612;-2.416;2022-11-23T11:23:17;9.10;99.90
15178;DHT22;7689;53.612;-2.416;2022-11-23T11:25:46;9.10;99.90
15178;DHT22;7689;53.612;-2.416;2022-11-23T11:28:35;9.20;99.90
15178;DHT22;7689;53.612;-2.416;2022-11-23T11:36:40;9.50;99.90
15178;DHT22;7689;53.612;-2.416;2022-11-23T11:39:18;9.40;99.90
15178;DHT22;7689;53.612;-2.416;2022-11-23T11:41:48;9.50;99.90
15178;DHT22;7689;53.612;-2.416;2022-11-23T11:44:23;9.50;99.90
15178;DHT22;7689;53.612;-2.416;2022-11-23T11:47:02;9.60;99.90
15178;DHT22;7689;53.612;-2.416;2022-11-23T11:49:40;9.70;99.90
15178;DHT22;7689;53.612;-2.416;2022-11-23T11:52:13;9.80;99.90
15178;DHT22;7689;53.612;-2.416;2022-11-23T11:55:00;9.80;99.90
15178;DHT22;7689;53.612;-2.416;2022-11-23T11:57:38;9.80;99.90
15178;DHT22;7689;53.612;-2.416;2022-11-23T12:00:12;9.80;99.90
15178;DHT22;7689;53.612;-2.416;2022-11-23T12:03:00;9.90;99.90
15178;DHT22;7689;53.612;-2.416;2022-11-23T12:13:29;10.10;99.90
15178;DHT22;7689;53.612;-2.416;2022-11-23T12:19:05;10.10;99.90
15178;DHT22;7689;53.612;-2.416;2022-11-23T12:30:42;10.10;99.90
15178;DHT22;7689;53.612;-2.416;2022-11-23T12:38:48;10.10;99.90
15178;DHT22;7689;53.612;-2.416;2022-11-23T12:47:01;10.20;99.90
15178;DHT22;7689;53.612;-2.416;2022-11-23T12:49:38;10.20;99.90
15178;DHT22;7689;53.612;-2.416;2022-11-23T12:52:30;10.20;99.90
15178;DHT22;7689;53.612;-2.416;2022-11-23T12:55:06;10.10;99.90
15178;DHT22;7689;53.612;-2.416;2022-11-23T12:57:45;10.00;99.90
15178;DHT22;7689;53.612;-2.416;2022-11-23T13:00:17;10.00;99.90
15178;DHT22;7689;53.612;-2.416;2022-11-23T13:16:35;10.00;99.90
15178;DHT22;7689;53.612;-2.416;2022-11-23T13:21:43;10.00;99.90
15178;DHT22;7689;53.612;-2.416;2022-11-23T13:24:30;9.90;99.90
15178;DHT22;7689;53.612;-2.416;2022-11-23T13:32:50;9.80;99.90
15178;DHT22;7689;53.612;-2.416;2022-11-23T13:40:35;9.50;99.90
15178;DHT22;7689;53.612;-2.416;2022-11-23T13:45:30;9.00;99.90
15178;DHT22;7689;53.612;-2.416;2022-11-23T13:48:05;9.00;99.90
15178;DHT22;7689;53.612;-2.416;2022-11-23T13:50:36;9.00;99.90
15178;DHT22;7689;53.612;-2.416;2022-11-23T13:55:47;8.90;99.90
15178;DHT22;7689;53.612;-2.416;2022-11-23T14:09:15;9.50;99.90
15178;DHT22;7689;53.612;-2.416;2022-11-23T14:17:35;9.80;99.90
15178;DHT22;7689;53.612;-2.416;2022-11-23T14:31:11;9.50;99.90
15178;DHT22;7689;53.612;-2.416;2022-11-23T14:33:53;9.50;99.90
15178;DHT22;7689;53.612;-2.416;2022-11-23T14:41:55;9.50;99.90
15178;DHT22;7689;53.612;-2.416;2022-11-23T14:44:27;9.50;99.90
15178;DHT22;7689;53.612;-2.416;2022-11-23T14:47:02;9.40;99.90
15178;DHT22;7689;53.612;-2.416;2022-11-23T14:49:28;9.30;99.90
15178;DHT22;7689;53.612;-2.416;2022-11-23T14:51:55;9.30;99.90
15178;DHT22;7689;53.612;-2.416;2022-11-23T14:54:21;9.20;99.90
15178;DHT22;7689;53.612;-2.416;2022-11-23T14:56:48;9.20;99.90
15178;DHT22;7689;53.612;-2.416;2022-11-23T14:59:29;9.20;99.90
15178;DHT22;7689;53.612;-2.416;2022-11-23T15:01:59;9.10;99.90
15178;DHT22;7689;53.612;-2.416;2022-11-23T15:04:32;9.00;99.90
15178;DHT22;7689;53.612;-2.416;2022-11-23T15:07:15;9.10;99.90
15178;DHT22;7689;53.612;-2.416;2022-11-23T15:09:50;9.00;99.90
15178;DHT22;7689;53.612;-2.416;2022-11-23T15:12:24;9.00;99.90
15178;DHT22;7689;53.612;-2.416;2022-11-23T15:14:52;9.00;99.90
15178;DHT22;7689;53.612;-2.416;2022-11-23T15:17:21;9.00;99.90
15178;DHT22;7689;53.612;-2.416;2022-11-23T15:19:58;9.10;99.90
15178;DHT22;7689;53.612;-2.416;2022-11-23T15:22:25;9.00;99.90
15178;DHT22;7689;53.612;-2.416;2022-11-23T15:24:52;9.00;99.90
15178;DHT22;7689;53.612;-2.416;2022-11-23T15:27:27;9.00;99.90
15178;DHT22;7689;53.612;-2.416;2022-11-23T15:29:58;9.00;99.90
15178;DHT22;7689;53.612;-2.416;2022-11-23T15:32:29;8.90;99.90
15178;DHT22;7689;53.612;-2.416;2022-11-23T15:35:04;8.80;99.90
15178;DHT22;7689;53.612;-2.416;2022-11-23T15:37:31;8.70;99.90
15178;DHT22;7689;53.612;-2.416;2022-11-23T15:39:59;8.70;99.90
15178;DHT22;7689;53.612;-2.416;2022-11-23T15:42:25;8.60;99.90
15178;DHT22;7689;53.612;-2.416;2022-11-23T15:44:51;8.60;99.90
15178;DHT22;7689;53.612;-2.416;2022-11-23T15:47:28;8.50;99.90
15178;DHT22;7689;53.612;-2.416;2022-11-23T15:49:59;8.40;99.90
15178;DHT22;7689;53.612;-2.416;2022-11-23T15:52:28;8.40;99.90
15178;DHT22;7689;53.612;-2.416;2022-11-23T15:55:04;8.40;99.90
15178;DHT22;7689;53.612;-2.416;2022-11-23T15:57:31;8.30;99.90
15178;DHT22;7689;53.612;-2.416;2022-11-23T15:59:59;8.20;99.90
15178;DHT22;7689;53.612;-2.416;2022-11-23T16:02:29;8.20;99.90
15178;DHT22;7689;53.612;-2.416;2022-11-23T16:07:30;8.10;99.90
15178;DHT22;7689;53.612;-2.416;2022-11-23T16:12:33;8.00;99.90
15178;DHT22;7689;53.612;-2.416;2022-11-23T16:18:04;8.00;99.90
15178;DHT22;7689;53.612;-2.416;2022-11-23T16:20:31;8.00;99.90
15178;DHT22;7689;53.612;-2.416;2022-11-23T16:22:58;7.90;99.90
15178;DHT22;7689;53.612;-2.416;2022-11-23T16:25:32;7.90;99.90
15178;DHT22;7689;53.612;-2.416;2022-11-23T16:28:16;7.90;99.90
15178;DHT22;7689;53.612;-2.416;2022-11-23T16:30:44;7.90;99.90
15178;DHT22;7689;53.612;-2.416;2022-11-23T16:33:17;7.90;99.90
15178;DHT22;7689;53.612;-2.416;2022-11-23T16:35:44;7.90;99.90
15178;DHT22;7689;53.612;-2.416;2022-11-23T16:38:10;7.90;99.90
15178;DHT22;7689;53.612;-2.416;2022-11-23T16:40:39;7.90;99.90
15178;DHT22;7689;53.612;-2.416;2022-11-23T16:43:05;7.90;99.90
15178;DHT22;7689;53.612;-2.416;2022-11-23T16:45:31;8.00;99.90
15178;DHT22;7689;53.612;-2.416;2022-11-23T16:47:59;8.00;99.90
15178;DHT22;7689;53.612;-2.416;2022-11-23T16:50:28;8.00;99.90
15178;DHT22;7689;53.612;-2.416;2022-11-23T16:52:54;8.90;99.90
15178;DHT22;7689;53.612;-2.416;2022-11-23T16:55:20;7.80;99.90
15178;DHT22;7689;53.612;-2.416;2022-11-23T16:57:47;7.90;99.90
15178;DHT22;7689;53.612;-2.416;2022-11-23T17:00:19;7.90;99.90
15178;DHT22;7689;53.612;-2.416;2022-11-23T17:02:45;7.90;99.90
15178;DHT22;7689;53.612;-2.416;2022-11-23T17:05:16;7.90;99.90
15178;DHT22;7689;53.612;-2.416;2022-11-23T17:07:42;7.90;99.90
15178;DHT22;7689;53.612;-2.416;2022-11-23T17:10:10;8.00;99.90
15178;DHT22;7689;53.612;-2.416;2022-11-23T17:12:37;7.90;99.90
15178;DHT22;7689;53.612;-2.416;2022-11-23T17:15:05;7.90;99.90
15178;DHT22;7689;53.612;-2.416;2022-11-23T17:17:32;7.90;99.90
15178;DHT22;7689;53.612;-2.416;2022-11-23T17:19:58;7.90;99.90
15178;DHT22;7689;53.612;-2.416;2022-11-23T17:22:24;7.90;99.90
15178;DHT22;7689;53.612;-2.416;2022-11-23T17:24:50;7.90;99.90
15178;DHT22;7689;53.612;-2.416;2022-11-23T17:27:24;7.90;99.90
15178;DHT22;7689;53.612;-2.416;2022-11-23T17:29:56;7.90;99.90
15178;DHT22;7689;53.612;-2.416;2022-11-23T17:32:23;7.90;99.90
15178;DHT22;7689;53.612;-2.416;2022-11-23T17:34:49;7.80;99.90
15178;DHT22;7689;53.612;-2.416;2022-11-23T17:37:18;7.70;99.90
15178;DHT22;7689;53.612;-2.416;2022-11-23T17:39:45;7.70;99.90
15178;DHT22;7689;53.612;-2.416;2022-11-23T17:42:11;7.60;99.90
15178;DHT22;7689;53.612;-2.416;2022-11-23T17:44:37;7.50;99.90
15178;DHT22;7689;53.612;-2.416;2022-11-23T17:47:04;7.50;99.90
15178;DHT22;7689;53.612;-2.416;2022-11-23T17:49:30;7.50;99.90
15178;DHT22;7689;53.612;-2.416;2022-11-23T17:51:56;7.40;99.90
15178;DHT22;7689;53.612;-2.416;2022-11-23T17:54:23;7.40;99.90
15178;DHT22;7689;53.612;-2.416;2022-11-23T17:56:50;7.40;99.90
15178;DHT22;7689;53.612;-2.416;2022-11-23T17:59:17;7.40;99.90
15178;DHT22;7689;53.612;-2.416;2022-11-23T18:01:43;7.40;99.90
15178;DHT22;7689;53.612;-2.416;2022-11-23T18:04:09;7.30;99.90
15178;DHT22;7689;53.612;-2.416;2022-11-23T18:06:35;7.30;99.90
15178;DHT22;7689;53.612;-2.416;2022-11-23T18:09:00;7.30;99.90
15178;DHT22;7689;53.612;-2.416;2022-11-23T18:11:26;7.40;99.90
15178;DHT22;7689;53.612;-2.416;2022-11-23T18:13:53;7.30;99.90
15178;DHT22;7689;53.612;-2.416;2022-11-23T18:16:21;7.30;99.90